Time;durP1;ratioP1;P1;durP2;ratioP2;P2;SDS_P1;SDS_P2;PMS_P1;PMS_P2;Temp;Humidity;BMP_temperature;BMP_pressure;BME280_temperature;BME280_humidity;BME280_pressure;Samples;Min_cycle;Max_cycle;Signal;HPM_P1;HPM_P2
2022/09/22 00:00:53;;;;;;;9.15;4.28;;;7.00;87.20;;;;;;5048844;28;20036;-70
2022/09/22 00:03:18;;;;;;;7.22;3.95;;;6.90;87.30;;;;;;5066396;28;20102;-69
2022/09/22 00:05:44;;;;;;;5.27;3.67;;;6.90;87.50;;;;;;5050484;28;20040;-69
2022/09/22 00:08:10;;;;;;;4.67;2.57;;;6.90;87.70;;;;;;5051005;28;20072;-69
2022/09/22 00:10:35;;;;;;;3.30;2.53;;;6.80;88.10;;;;;;5068844;28;20487;-70
2022/09/22 00:13:02;;;;;;;3.70;2.37;;;6.80;88.50;;;;;;5049288;28;20048;-70
2022/09/22 00:15:27;;;;;;;3.40;1.77;;;6.70;88.30;;;;;;5034530;28;20040;-70
2022/09/22 00:17:53;;;;;;;3.10;1.47;;;6.70;88.60;;;;;;5034741;28;20405;-70
2022/09/22 00:20:19;;;;;;;2.27;1.70;;;6.60;88.80;;;;;;5042359;28;20051;-70
2022/09/22 00:22:49;;;;;;;1.67;1.17;;;6.50;88.70;;;;;;5049601;28;20531;-69
2022/09/22 00:25:15;;;;;;;2.15;1.50;;;6.40;88.80;;;;;;5048576;28;20515;-69
2022/09/22 00:27:42;;;;;;;1.60;1.08;;;6.30;89.50;;;;;;5048144;28;20451;-69
2022/09/22 00:30:08;;;;;;;1.70;1.27;;;6.30;89.40;;;;;;5049348;28;20053;-69
2022/09/22 00:32:38;;;;;;;1.88;1.40;;;6.20;89.10;;;;;;5051771;28;20126;-70
2022/09/22 00:35:04;;;;;;;2.22;1.60;;;6.20;89.10;;;;;;5055252;28;20053;-71
2022/09/22 00:37:30;;;;;;;2.00;1.33;;;6.10;89.10;;;;;;5036182;28;20115;-70
2022/09/22 00:39:56;;;;;;;2.90;1.67;;;6.10;89.10;;;;;;5049295;28;20040;-70
2022/09/22 00:42:22;;;;;;;2.40;1.60;;;6.10;89.00;;;;;;5048762;28;20055;-69
2022/09/22 00:44:48;;;;;;;4.38;1.90;;;6.00;88.90;;;;;;5067952;28;20040;-70
2022/09/22 00:47:16;;;;;;;2.27;1.50;;;6.00;89.00;;;;;;5049305;28;20097;-70
2022/09/22 00:49:45;;;;;;;3.10;1.63;;;6.00;88.90;;;;;;5035460;28;20405;-70
2022/09/22 00:52:15;;;;;;;2.75;1.90;;;6.00;88.80;;;;;;5049876;28;20441;-70
2022/09/22 00:54:41;;;;;;;2.50;1.80;;;5.90;88.70;;;;;;5068509;28;20040;-70
2022/09/22 00:57:12;;;;;;;3.85;1.60;;;5.90;88.70;;;;;;5064594;28;20477;-70
2022/09/22 00:59:39;;;;;;;4.65;2.10;;;5.90;88.70;;;;;;5049388;28;20044;-70
2022/09/22 01:02:05;;;;;;;2.92;2.13;;;5.90;88.60;;;;;;5067393;28;20159;-70
2022/09/22 01:04:31;;;;;;;3.40;1.95;;;5.90;88.70;;;;;;5051841;28;20048;-70
2022/09/22 01:06:58;;;;;;;4.40;1.90;;;5.90;88.60;;;;;;5035065;28;20542;-70
2022/09/22 01:09:24;;;;;;;4.95;2.35;;;5.90;88.60;;;;;;5048260;28;20102;-70
2022/09/22 01:11:50;;;;;;;4.78;2.42;;;5.90;88.70;;;;;;5064533;28;20072;-70
2022/09/22 01:14:45;;;;;;;5.57;2.70;;;5.90;88.70;;;;;;5045671;28;20099;-70
2022/09/22 01:17:37;;;;;;;4.43;2.38;;;5.90;88.60;;;;;;5065730;28;20106;-70
2022/09/22 01:20:22;;;;;;;4.50;2.60;;;5.90;88.60;;;;;;5065531;28;20365;-70
2022/09/22 01:23:10;;;;;;;4.38;2.58;;;5.90;88.50;;;;;;5065487;28;20496;-70
2022/09/22 01:25:54;;;;;;;4.63;2.60;;;5.80;88.60;;;;;;5066097;28;20163;-70
2022/09/22 01:28:38;;;;;;;4.25;2.90;;;5.80;88.50;;;;;;5065225;28;20139;-70
2022/09/22 01:31:06;;;;;;;6.55;3.15;;;5.80;88.60;;;;;;5067600;28;20083;-70
2022/09/22 01:33:40;;;;;;;6.80;3.15;;;5.90;88.70;;;;;;5049076;28;20532;-70
2022/09/22 01:36:21;;;;;;;6.07;3.42;;;5.90;88.70;;;;;;5051495;28;20153;-70
2022/09/22 01:39:11;;;;;;;5.80;3.88;;;5.90;88.70;;;;;;5060984;28;20036;-70
2022/09/22 01:41:43;;;;;;;4.70;3.47;;;5.90;88.60;;;;;;5044450;28;20409;-70
2022/09/22 01:44:30;;;;;;;4.63;3.17;;;5.90;88.80;;;;;;5066363;28;20039;-70
2022/09/22 01:47:02;;;;;;;5.95;3.45;;;6.00;88.80;;;;;;5049105;28;20044;-70
2022/09/22 01:49:32;;;;;;;4.72;3.00;;;6.00;88.80;;;;;;5056125;28;20042;-70
2022/09/22 01:52:04;;;;;;;4.53;2.95;;;6.00;88.90;;;;;;5060834;28;20075;-70
2022/09/22 01:54:55;;;;;;;4.43;2.95;;;5.90;88.80;;;;;;5048236;28;20140;-70
2022/09/22 01:57:50;;;;;;;8.50;3.47;;;6.00;88.90;;;;;;5060731;28;20126;-70
2022/09/22 02:00:17;;;;;;;7.18;3.28;;;5.90;88.90;;;;;;5064619;28;20064;-70
2022/09/22 02:02:57;;;;;;;4.72;2.60;;;5.90;89.00;;;;;;5065801;28;20143;-70
2022/09/22 02:05:32;;;;;;;4.28;2.47;;;5.90;89.00;;;;;;5052315;28;20493;-70
2022/09/22 02:08:04;;;;;;;4.55;2.38;;;5.90;88.90;;;;;;5062405;28;20128;-70
2022/09/22 02:10:39;;;;;;;6.10;2.33;;;5.90;89.00;;;;;;5064840;28;20127;-70
2022/09/22 02:13:05;;;;;;;4.00;2.03;;;5.90;89.10;;;;;;5048711;28;20041;-70
2022/09/22 02:18:24;;;;;;;3.38;2.35;;;5.90;89.00;;;;;;5065891;28;20037;-70
2022/09/22 02:20:50;;;;;;;3.70;2.10;;;5.90;89.10;;;;;;5048861;28;20045;-70
2022/09/22 02:23:16;;;;;;;4.35;2.70;;;5.80;89.00;;;;;;5068814;28;20424;-70
2022/09/22 02:25:44;;;;;;;3.72;2.33;;;5.80;89.10;;;;;;5052860;28;20052;-70
2022/09/22 02:28:13;;;;;;;5.95;2.30;;;5.80;89.10;;;;;;5053202;28;20048;-70
2022/09/22 02:30:40;;;;;;;7.05;3.10;;;5.80;89.30;;;;;;5069276;28;20037;-70
2022/09/22 02:33:06;;;;;;;4.22;2.70;;;5.80;89.40;;;;;;5053420;28;20040;-71
2022/09/22 02:35:36;;;;;;;4.78;3.15;;;5.80;89.50;;;;;;5021133;28;20032;-71
2022/09/22 02:38:28;;;;;;;4.90;3.03;;;5.80;89.60;;;;;;5066629;28;20040;-70
2022/09/22 02:41:13;;;;;;;5.55;3.00;;;5.90;89.70;;;;;;5054067;28;20393;-71
2022/09/22 02:43:41;;;;;;;4.18;2.30;;;5.80;89.80;;;;;;5051720;28;20045;-70
2022/09/22 02:46:22;;;;;;;5.95;3.13;;;5.80;89.90;;;;;;5070513;28;20048;-70
2022/09/22 02:48:57;;;;;;;5.05;2.95;;;5.80;89.80;;;;;;5065434;28;20049;-70
2022/09/22 02:51:23;;;;;;;4.30;2.70;;;5.80;90.00;;;;;;5064144;28;20190;-71
2022/09/22 02:53:49;;;;;;;4.17;2.73;;;5.80;90.00;;;;;;5064561;28;20119;-70
2022/09/22 02:56:15;;;;;;;4.10;2.90;;;5.80;90.10;;;;;;5034303;28;20072;-71
2022/09/22 02:58:40;;;;;;;5.85;3.00;;;5.80;90.10;;;;;;5025311;28;20044;-70
2022/09/22 03:01:06;;;;;;;5.70;2.60;;;5.70;90.00;;;;;;5047778;28;20059;-70
2022/09/22 03:03:32;;;;;;;4.27;2.90;;;5.70;90.10;;;;;;5030701;28;20044;-70
2022/09/22 03:05:58;;;;;;;4.87;2.90;;;5.70;90.20;;;;;;5063130;28;20120;-70
2022/09/22 03:08:23;;;;;;;4.67;2.37;;;5.70;90.20;;;;;;5067353;28;20047;-70
2022/09/22 03:10:49;;;;;;;4.77;3.00;;;5.70;90.10;;;;;;5053019;28;20047;-70
2022/09/22 03:13:15;;;;;;;3.53;2.60;;;5.60;90.10;;;;;;5051181;28;20044;-70
2022/09/22 03:15:41;;;;;;;4.07;2.63;;;5.60;90.20;;;;;;5038842;28;20451;-70
2022/09/22 03:18:06;;;;;;;3.65;2.33;;;5.60;90.20;;;;;;5070216;28;20504;-70
2022/09/22 03:20:32;;;;;;;4.37;2.73;;;5.60;90.10;;;;;;5046786;28;20047;-70
2022/09/22 03:22:58;;;;;;;4.87;2.60;;;5.60;90.10;;;;;;5067665;28;20561;-70
2022/09/22 03:25:23;;;;;;;3.43;2.40;;;5.60;90.20;;;;;;5034289;28;20105;-70
2022/09/22 03:27:49;;;;;;;4.77;2.60;;;5.50;90.20;;;;;;5034546;28;20044;-71
2022/09/22 03:30:15;;;;;;;4.33;2.77;;;5.50;90.20;;;;;;5047345;28;20123;-70
2022/09/22 03:32:40;;;;;;;5.80;2.93;;;5.50;90.20;;;;;;5047213;28;20032;-70
2022/09/22 03:35:07;;;;;;;4.30;2.50;;;5.50;90.30;;;;;;5052305;28;20051;-70
2022/09/22 03:37:33;;;;;;;3.47;2.63;;;5.50;90.40;;;;;;5062566;28;20135;-70
2022/09/22 03:40:00;;;;;;;3.47;2.67;;;5.50;90.40;;;;;;5067398;28;20080;-70
2022/09/22 03:42:25;;;;;;;4.18;2.97;;;5.50;90.30;;;;;;5048912;28;20608;-70
2022/09/22 03:44:51;;;;;;;6.00;3.00;;;5.40;90.30;;;;;;5052386;28;20056;-70
2022/09/22 03:47:18;;;;;;;6.83;2.90;;;5.40;90.20;;;;;;5052230;28;20044;-70
2022/09/22 03:49:43;;;;;;;4.95;3.25;;;5.40;90.20;;;;;;5067083;28;20037;-70
2022/09/22 03:52:09;;;;;;;6.80;3.27;;;5.40;90.40;;;;;;5049984;28;20185;-70
2022/09/22 03:54:35;;;;;;;6.43;3.30;;;5.40;90.30;;;;;;5050688;28;20040;-70
2022/09/22 03:57:02;;;;;;;5.90;3.80;;;5.40;90.50;;;;;;5050123;28;20488;-70
2022/09/22 03:59:28;;;;;;;5.93;3.80;;;5.40;90.40;;;;;;5046761;28;20076;-70
2022/09/22 04:01:54;;;;;;;6.97;3.53;;;5.40;90.50;;;;;;5065342;28;20040;-70
2022/09/22 04:04:20;;;;;;;6.13;3.47;;;5.40;90.60;;;;;;5066526;28;20048;-70
2022/09/22 04:06:46;;;;;;;7.43;3.73;;;5.40;90.60;;;;;;5066373;28;20058;-70
2022/09/22 04:09:11;;;;;;;5.60;3.67;;;5.40;90.90;;;;;;5036248;28;20542;-70
2022/09/22 04:11:37;;;;;;;5.73;3.27;;;5.40;91.00;;;;;;5049527;28;20041;-70
2022/09/22 04:14:03;;;;;;;7.17;3.97;;;5.40;90.90;;;;;;5044825;28;20574;-70
2022/09/22 04:16:30;;;;;;;4.80;3.38;;;5.40;90.90;;;;;;5062278;28;20053;-70
2022/09/22 04:18:56;;;;;;;5.18;3.50;;;5.40;90.90;;;;;;5049906;28;20051;-70
2022/09/22 04:21:22;;;;;;;4.33;3.10;;;5.40;90.80;;;;;;5043778;28;20040;-70
2022/09/22 04:23:47;;;;;;;5.73;3.57;;;5.30;91.10;;;;;;5067060;28;20053;-70
2022/09/22 04:26:13;;;;;;;4.17;3.17;;;5.30;91.10;;;;;;5047879;28;20523;-70
2022/09/22 04:28:39;;;;;;;5.50;3.40;;;5.30;91.00;;;;;;5084921;28;20041;-70
2022/09/22 04:31:05;;;;;;;6.72;3.17;;;5.30;91.00;;;;;;5045537;28;20133;-70
2022/09/22 04:33:31;;;;;;;6.80;3.50;;;5.20;90.90;;;;;;5066310;28;20044;-70
2022/09/22 04:35:56;;;;;;;5.10;3.40;;;5.20;91.00;;;;;;5049324;28;20044;-70
2022/09/22 04:38:22;;;;;;;4.20;2.97;;;5.10;90.90;;;;;;5043794;28;20032;-70
2022/09/22 04:40:48;;;;;;;6.07;2.70;;;5.10;91.00;;;;;;5048552;28;20612;-70
2022/09/22 04:43:14;;;;;;;6.20;3.15;;;5.10;91.10;;;;;;5049107;28;20466;-70
2022/09/22 04:45:47;;;;;;;4.50;2.95;;;5.10;91.20;;;;;;5074225;28;20053;-70
2022/09/22 04:48:14;;;;;;;4.55;2.80;;;5.20;91.20;;;;;;5062412;28;20048;-70
2022/09/22 04:50:39;;;;;;;4.93;2.50;;;5.20;91.20;;;;;;5055944;28;20040;-70
2022/09/22 04:53:05;;;;;;;6.73;2.80;;;5.20;91.20;;;;;;5025868;28;20477;-70
2022/09/22 04:55:32;;;;;;;4.75;2.90;;;5.20;91.20;;;;;;5048847;28;20071;-70
2022/09/22 04:57:57;;;;;;;6.15;3.30;;;5.20;91.20;;;;;;5058838;28;20036;-70
2022/09/22 05:00:26;;;;;;;5.83;3.07;;;5.20;91.20;;;;;;5061108;28;20050;-70
2022/09/22 05:02:52;;;;;;;4.75;3.03;;;5.10;91.30;;;;;;5066480;28;20496;-70
2022/09/22 05:05:18;;;;;;;4.05;2.92;;;5.20;91.20;;;;;;5065078;28;20123;-70
2022/09/22 05:07:46;;;;;;;5.10;3.20;;;5.20;91.40;;;;;;5065247;28;20079;-70
2022/09/22 05:10:13;;;;;;;5.78;2.90;;;5.20;91.50;;;;;;5068312;28;20127;-70
2022/09/22 05:12:40;;;;;;;4.47;2.78;;;5.10;91.50;;;;;;5064979;28;20040;-70
2022/09/22 05:15:08;;;;;;;3.38;2.45;;;5.10;91.40;;;;;;5052292;28;20483;-70
2022/09/22 05:17:35;;;;;;;6.43;2.78;;;5.10;91.30;;;;;;5067458;28;20310;-70
2022/09/22 05:20:05;;;;;;;5.00;2.80;;;5.10;91.40;;;;;;5048053;28;20048;-70
2022/09/22 05:22:32;;;;;;;4.53;2.65;;;5.00;91.40;;;;;;5064005;28;20514;-70
2022/09/22 05:24:58;;;;;;;5.78;2.33;;;5.00;91.40;;;;;;5049378;28;20079;-70
2022/09/22 05:27:24;;;;;;;4.20;2.50;;;5.00;91.40;;;;;;5029524;28;20083;-70
2022/09/22 05:29:49;;;;;;;3.65;2.45;;;5.00;91.60;;;;;;5064064;28;20116;-70
2022/09/22 05:32:15;;;;;;;5.90;2.70;;;5.10;91.60;;;;;;5046969;28;20571;-70
2022/09/22 05:34:41;;;;;;;4.73;2.17;;;5.10;91.50;;;;;;5048697;28;20125;-70
2022/09/22 05:37:06;;;;;;;4.20;2.80;;;5.00;91.50;;;;;;5065879;28;20400;-70
2022/09/22 05:39:32;;;;;;;4.37;2.77;;;5.10;91.60;;;;;;5047990;28;20048;-70
2022/09/22 05:41:58;;;;;;;4.63;2.50;;;5.10;91.80;;;;;;5064780;28;20059;-70
2022/09/22 05:44:23;;;;;;;5.17;2.70;;;5.10;91.70;;;;;;5045116;28;20040;-70
2022/09/22 05:46:49;;;;;;;4.70;2.53;;;5.20;91.70;;;;;;5059177;28;20087;-70
2022/09/22 05:49:15;;;;;;;5.10;3.07;;;5.20;91.70;;;;;;5061596;28;20485;-70
2022/09/22 05:51:41;;;;;;;6.23;3.23;;;5.30;91.90;;;;;;5032409;28;20048;-70
2022/09/22 05:54:08;;;;;;;5.60;3.10;;;5.30;91.80;;;;;;5065627;28;20131;-70
2022/09/22 05:56:34;;;;;;;6.47;3.00;;;5.40;92.10;;;;;;5067148;28;20389;-70
2022/09/22 05:59:00;;;;;;;9.10;3.73;;;5.40;92.00;;;;;;5031578;28;20354;-70
2022/09/22 06:01:25;;;;;;;5.13;3.00;;;5.50;92.10;;;;;;5064955;28;20075;-70
2022/09/22 06:03:51;;;;;;;5.80;3.50;;;5.50;92.10;;;;;;5064193;28;20413;-70
2022/09/22 06:06:17;;;;;;;4.13;3.17;;;5.60;92.10;;;;;;5065341;28;20090;-70
2022/09/22 06:08:42;;;;;;;6.70;3.77;;;5.70;92.00;;;;;;5048880;28;20545;-70
2022/09/22 06:11:08;;;;;;;6.67;3.60;;;5.80;92.10;;;;;;5064292;28;20587;-70
2022/09/22 06:13:35;;;;;;;5.87;3.33;;;5.80;92.00;;;;;;5028335;28;20485;-71
2022/09/22 06:16:01;;;;;;;6.90;3.85;;;5.90;92.10;;;;;;5031394;28;20507;-70
2022/09/22 06:18:27;;;;;;;8.48;4.30;;;6.00;92.10;;;;;;5066670;28;20105;-70
2022/09/22 06:20:56;;;;;;;7.40;4.57;;;6.00;92.60;;;;;;5066862;28;20408;-70
2022/09/22 06:23:25;;;;;;;8.38;4.40;;;6.10;93.00;;;;;;5047341;28;20036;-70
2022/09/22 06:25:58;;;;;;;9.48;4.90;;;6.20;92.90;;;;;;5048941;28;20047;-70
2022/09/22 06:28:23;;;;;;;10.25;4.22;;;6.30;92.80;;;;;;5048683;28;20045;-70
2022/09/22 06:30:50;;;;;;;6.03;4.23;;;6.40;92.90;;;;;;5063765;28;20083;-71
2022/09/22 06:33:17;;;;;;;7.10;4.43;;;6.50;92.80;;;;;;5065806;28;20044;-71
2022/09/22 06:35:44;;;;;;;7.53;4.38;;;6.60;93.00;;;;;;5065340;28;20032;-72
2022/09/22 06:38:13;;;;;;;5.55;3.92;;;6.60;92.80;;;;;;5061267;28;20036;-71
2022/09/22 06:40:40;;;;;;;8.80;4.80;;;6.70;92.80;;;;;;5064846;28;20053;-71
2022/09/22 06:43:11;;;;;;;9.45;5.18;;;6.80;93.00;;;;;;5053898;28;20131;-71
2022/09/22 06:45:43;;;;;;;11.50;4.53;;;7.00;93.00;;;;;;5062056;28;20051;-71
2022/09/22 06:48:10;;;;;;;6.53;4.32;;;7.00;93.00;;;;;;5027854;28;20044;-71
2022/09/22 06:50:37;;;;;;;7.68;4.93;;;7.10;92.70;;;;;;5045692;28;20393;-71
2022/09/22 06:53:06;;;;;;;8.95;4.63;;;7.20;92.80;;;;;;5045314;28;20060;-71
2022/09/22 06:55:32;;;;;;;8.48;4.55;;;7.30;92.60;;;;;;5064177;28;20049;-71
2022/09/22 06:57:59;;;;;;;8.00;4.43;;;7.40;92.40;;;;;;5064898;28;20045;-71
2022/09/22 07:00:31;;;;;;;7.28;4.47;;;7.50;92.30;;;;;;5064060;28;20052;-71
2022/09/22 07:03:19;;;;;;;7.65;4.28;;;7.60;92.20;;;;;;5069794;28;20052;-71
2022/09/22 07:06:02;;;;;;;8.05;4.55;;;7.80;92.20;;;;;;5051207;28;20040;-71
2022/09/22 07:08:31;;;;;;;7.82;4.60;;;7.90;92.20;;;;;;5069418;28;20064;-71
2022/09/22 07:11:03;;;;;;;6.68;4.30;;;8.00;92.20;;;;;;5067675;28;20167;-71
2022/09/22 07:13:30;;;;;;;10.23;4.55;;;8.20;92.10;;;;;;5062272;28;20148;-71
2022/09/22 07:16:08;;;;;;;9.82;4.95;;;8.30;91.90;;;;;;5045357;28;20055;-71
2022/09/22 07:18:38;;;;;;;7.78;5.13;;;8.40;91.80;;;;;;5061928;28;20137;-71
2022/09/22 07:21:09;;;;;;;9.15;4.88;;;8.60;91.80;;;;;;5062423;28;20044;-71
2022/09/22 07:23:35;;;;;;;8.02;4.95;;;8.70;91.70;;;;;;5061403;28;20156;-71
2022/09/22 07:26:03;;;;;;;9.43;4.95;;;8.80;91.50;;;;;;5076781;28;20049;-71
2022/09/22 07:28:30;;;;;;;7.90;5.30;;;9.00;91.40;;;;;;5047769;28;20094;-69
2022/09/22 07:31:04;;;;;;;10.45;5.28;;;9.10;91.20;;;;;;5066656;28;20475;-69
2022/09/22 07:33:34;;;;;;;5.93;4.60;;;9.30;91.00;;;;;;5038269;28;20064;-69
2022/09/22 07:36:07;;;;;;;10.50;5.43;;;9.50;90.80;;;;;;5026408;28;20420;-69
2022/09/22 07:38:47;;;;;;;10.88;5.53;;;9.60;90.50;;;;;;5069253;28;20053;-70
2022/09/22 07:41:17;;;;;;;8.82;5.47;;;9.80;90.40;;;;;;5050806;28;20040;-71
2022/09/22 07:43:44;;;;;;;18.13;5.90;;;9.90;90.10;;;;;;5046046;28;20509;-71
2022/09/22 07:46:11;;;;;;;8.95;5.40;;;10.00;89.90;;;;;;5045999;28;20041;-71
2022/09/22 07:48:47;;;;;;;9.43;5.25;;;10.10;89.70;;;;;;5061785;28;20044;-71
2022/09/22 07:51:22;;;;;;;7.22;4.70;;;10.30;89.40;;;;;;5048452;28;20044;-71
2022/09/22 07:54:01;;;;;;;7.07;4.88;;;10.50;88.90;;;;;;5064147;28;20040;-71
2022/09/22 07:56:27;;;;;;;9.00;4.80;;;10.60;88.40;;;;;;5064087;28;20059;-72
2022/09/22 07:58:53;;;;;;;8.32;4.70;;;10.80;87.80;;;;;;5064306;28;20488;-71
2022/09/22 08:01:21;;;;;;;8.65;4.40;;;10.90;87.50;;;;;;5049916;28;20063;-71
2022/09/22 08:03:47;;;;;;;6.22;3.85;;;11.10;87.20;;;;;;5056178;28;20032;-71
2022/09/22 08:06:14;;;;;;;8.63;3.83;;;11.20;87.00;;;;;;5047733;28;20092;-71
2022/09/22 08:08:42;;;;;;;7.95;3.92;;;11.40;85.80;;;;;;5068476;28;20545;-71
2022/09/22 08:11:13;;;;;;;5.28;4.32;;;11.50;85.80;;;;;;5066527;28;20155;-71
2022/09/22 08:13:42;;;;;;;8.40;4.00;;;11.70;85.10;;;;;;5065503;28;20044;-69
2022/09/22 08:16:09;;;;;;;6.35;3.47;;;11.80;84.60;;;;;;5066528;28;20105;-69
2022/09/22 08:18:35;;;;;;;6.43;3.45;;;12.00;83.90;;;;;;5064910;28;20620;-69
2022/09/22 08:21:02;;;;;;;5.03;3.70;;;12.10;83.70;;;;;;5047829;28;20049;-69
2022/09/22 08:23:30;;;;;;;6.28;4.22;;;12.30;83.40;;;;;;5064988;28;20083;-70
2022/09/22 08:25:56;;;;;;;5.97;4.05;;;12.40;83.00;;;;;;5044461;28;20493;-69
2022/09/22 08:28:22;;;;;;;6.25;4.28;;;12.50;82.10;;;;;;5062493;28;20099;-69
2022/09/22 08:30:48;;;;;;;9.03;4.00;;;12.70;82.10;;;;;;5036847;28;20456;-70
2022/09/22 08:33:13;;;;;;;6.07;4.10;;;12.80;81.40;;;;;;5032021;28;20067;-69
2022/09/22 08:35:53;;;;;;;7.83;4.10;;;12.90;80.50;;;;;;5047620;28;20041;-69
2022/09/22 08:38:21;;;;;;;6.43;3.20;;;13.10;79.60;;;;;;5058522;28;20081;-69
2022/09/22 08:40:58;;;;;;;6.93;3.30;;;13.10;78.10;;;;;;5039591;28;20815;-69
2022/09/22 08:43:25;;;;;;;5.77;4.00;;;13.20;78.40;;;;;;5050101;28;20290;-69
2022/09/22 08:45:51;;;;;;;6.37;3.40;;;13.30;77.40;;;;;;5049608;28;20763;-70
2022/09/22 08:54:08;;;;;;;6.67;3.50;;;13.70;76.30;;;;;;5066231;28;20286;-71
2022/09/22 08:56:46;;;;;;;7.33;3.43;;;13.80;75.90;;;;;;5061288;28;20287;-71
2022/09/22 08:59:21;;;;;;;6.47;3.10;;;13.90;74.10;;;;;;5060940;28;20037;-71
2022/09/22 09:02:08;;;;;;;5.03;3.37;;;14.00;74.10;;;;;;5056194;28;20616;-71
2022/09/22 09:04:37;;;;;;;6.23;2.97;;;14.00;74.10;;;;;;5049351;28;20537;-71
2022/09/22 09:07:18;;;;;;;5.77;3.10;;;14.20;73.70;;;;;;5045154;28;20787;-71
2022/09/22 09:10:20;;;;;;;5.20;3.17;;;14.30;73.30;;;;;;5051290;28;20307;-71
2022/09/22 09:13:06;;;;;;;5.10;3.70;;;14.40;72.50;;;;;;5065635;28;20279;-70
2022/09/22 09:15:59;;;;;;;6.20;2.73;;;14.60;72.90;;;;;;5046675;28;20280;-71
2022/09/22 09:18:32;;;;;;;6.33;2.50;;;14.70;72.60;;;;;;5064681;28;20647;-71
2022/09/22 09:21:05;;;;;;;6.63;2.93;;;14.80;71.40;;;;;;5032303;28;20282;-70
2022/09/22 09:23:53;;;;;;;7.20;2.93;;;14.90;71.10;;;;;;5051664;28;20294;-70
2022/09/22 09:26:19;;;;;;;10.53;3.67;;;15.00;70.80;;;;;;5048384;28;20606;-70
2022/09/22 09:28:57;;;;;;;4.40;3.20;;;15.10;70.10;;;;;;5043919;28;20826;-70
2022/09/22 09:31:33;;;;;;;5.97;2.60;;;15.20;69.80;;;;;;5062452;28;21553;-70
2022/09/22 09:34:03;;;;;;;4.83;2.67;;;15.30;69.80;;;;;;5065313;28;20299;-70
2022/09/22 09:36:36;;;;;;;4.43;2.60;;;15.50;69.10;;;;;;5053479;28;20865;-70
2022/09/22 09:39:19;;;;;;;4.53;3.10;;;15.60;69.00;;;;;;5048287;28;20311;-71
2022/09/22 09:41:47;;;;;;;7.13;3.30;;;15.70;68.30;;;;;;5048980;28;20273;-71
2022/09/22 09:44:31;;;;;;;6.27;3.07;;;15.80;67.50;;;;;;5066121;28;20320;-70
2022/09/22 09:47:03;;;;;;;7.70;2.97;;;15.80;66.50;;;;;;5048987;28;20336;-70
2022/09/22 09:49:29;;;;;;;7.53;2.83;;;15.90;65.90;;;;;;5050122;28;20330;-70
2022/09/22 09:51:59;;;;;;;5.27;2.53;;;16.00;65.60;;;;;;5064412;28;20279;-70
2022/09/22 09:54:28;;;;;;;6.20;2.13;;;16.10;65.40;;;;;;5058548;28;20275;-70
2022/09/22 09:57:12;;;;;;;4.73;2.60;;;16.20;65.10;;;;;;5054621;28;20373;-71
2022/09/22 10:02:33;;;;;;;6.70;3.20;;;16.40;63.90;;;;;;5072809;28;20774;-71
2022/09/22 10:05:19;;;;;;;5.83;2.80;;;16.50;63.40;;;;;;5066488;28;20699;-70
2022/09/22 10:07:47;;;;;;;4.67;2.70;;;16.50;63.60;;;;;;5048870;28;20290;-70
2022/09/22 10:10:31;;;;;;;5.60;3.30;;;16.60;64.50;;;;;;5071131;28;20371;-70
2022/09/22 10:13:02;;;;;;;6.30;3.60;;;16.80;63.50;;;;;;5045248;28;20679;-70
2022/09/22 10:15:29;;;;;;;5.47;2.90;;;16.80;61.50;;;;;;5065432;28;20289;-70
2022/09/22 10:17:54;;;;;;;5.67;3.10;;;16.90;62.20;;;;;;5047895;28;20278;-71
2022/09/22 10:20:25;;;;;;;7.97;2.87;;;16.90;62.30;;;;;;5043772;28;20303;-70
2022/09/22 10:22:52;;;;;;;9.00;4.07;;;16.90;61.10;;;;;;5061783;28;20106;-70
2022/09/22 10:25:23;;;;;;;9.23;3.97;;;17.00;60.70;;;;;;5046725;28;20279;-70
2022/09/22 10:28:03;;;;;;;6.43;4.07;;;17.00;61.20;;;;;;5062561;28;20862;-70
2022/09/22 10:30:31;;;;;;;6.13;4.10;;;17.10;60.90;;;;;;5050156;28;20302;-70
2022/09/22 10:33:19;;;;;;;8.60;4.30;;;17.10;59.90;;;;;;5048238;28;20283;-70
2022/09/22 10:35:56;;;;;;;8.60;3.93;;;17.20;59.40;;;;;;5030417;28;20275;-70
2022/09/22 10:38:25;;;;;;;5.87;4.30;;;17.30;59.40;;;;;;5065236;28;20279;-71
2022/09/22 10:41:13;;;;;;;6.30;4.20;;;17.40;58.90;;;;;;5053896;28;20715;-70
2022/09/22 10:43:51;;;;;;;6.73;4.60;;;17.40;58.40;;;;;;5051774;28;20282;-70
2022/09/22 10:46:50;;;;;;;8.43;5.00;;;17.50;59.70;;;;;;5050000;28;20279;-71
2022/09/22 10:49:34;;;;;;;8.60;4.87;;;17.60;58.00;;;;;;5052163;28;20487;-70
2022/09/22 10:52:23;;;;;;;8.83;4.50;;;17.70;58.00;;;;;;5052639;28;20318;-70
2022/09/22 10:55:07;;;;;;;9.07;4.47;;;17.70;55.50;;;;;;5052926;28;20304;-70
2022/09/22 10:57:51;;;;;;;8.43;5.73;;;17.80;57.50;;;;;;5068100;28;20335;-70
2022/09/22 11:00:22;;;;;;;7.95;5.53;;;17.90;56.70;;;;;;5066772;28;20495;-71
2022/09/22 11:03:25;;;;;;;9.87;5.50;;;17.90;56.60;;;;;;5059141;28;20040;-71
2022/09/22 11:12:38;;;;;;;8.97;4.77;;;18.10;55.20;;;;;;5067114;28;20377;-70
2022/09/22 11:15:38;;;;;;;7.20;4.20;;;18.20;54.50;;;;;;4996797;28;20864;-70
2022/09/22 11:18:10;;;;;;;9.83;4.40;;;18.20;54.60;;;;;;5050474;28;20776;-70
2022/09/22 11:20:42;;;;;;;5.80;3.80;;;18.30;54.30;;;;;;5058291;28;20292;-70
2022/09/22 11:23:55;;;;;;;5.57;4.00;;;18.40;54.20;;;;;;5064929;28;20282;-70
2022/09/22 11:26:40;;;;;;;9.27;3.90;;;18.50;54.10;;;;;;5065320;28;20287;-70
2022/09/22 11:29:06;;;;;;;8.77;3.63;;;18.60;54.70;;;;;;5047827;28;20293;-71
2022/09/22 11:32:09;;;;;;;6.70;3.60;;;18.70;54.40;;;;;;5049557;28;20271;-71
2022/09/22 11:34:47;;;;;;;6.90;4.10;;;18.80;52.60;;;;;;5064836;28;20474;-71
2022/09/22 11:37:49;;;;;;;6.67;4.00;;;18.80;52.50;;;;;;5066624;28;20291;-70
2022/09/22 11:40:54;;;;;;;4.67;3.30;;;18.90;52.80;;;;;;5055269;28;20320;-71
2022/09/22 11:43:32;;;;;;;6.82;4.22;;;18.90;53.00;;;;;;5060459;28;20311;-70
2022/09/22 11:46:12;;;;;;;5.43;3.53;;;18.90;52.20;;;;;;5048527;28;20076;-70
2022/09/22 11:49:00;;;;;;;6.77;3.63;;;19.00;51.90;;;;;;5066307;28;20283;-70
2022/09/22 11:52:04;;;;;;;5.60;3.67;;;19.10;52.30;;;;;;5056696;28;20457;-70
2022/09/22 11:54:46;;;;;;;6.83;4.43;;;19.20;52.20;;;;;;5055587;28;20291;-71
2022/09/22 11:57:16;;;;;;;5.63;3.63;;;19.20;51.70;;;;;;5068748;28;20084;-70
2022/09/22 11:59:47;;;;;;;7.23;4.20;;;19.20;51.80;;;;;;5067201;28;20067;-70
2022/09/22 12:02:25;;;;;;;6.87;4.10;;;19.30;51.30;;;;;;5049004;28;20489;-70
2022/09/22 12:05:08;;;;;;;8.13;4.70;;;19.40;51.00;;;;;;5084478;28;20100;-70
2022/09/22 12:07:46;;;;;;;7.27;5.30;;;19.40;50.80;;;;;;5042239;28;20055;-70
2022/09/22 12:10:17;;;;;;;6.50;4.57;;;19.40;51.10;;;;;;5064644;28;20060;-70
2022/09/22 12:12:47;;;;;;;6.47;4.77;;;19.50;50.50;;;;;;5068909;28;20131;-70
2022/09/22 12:15:18;;;;;;;8.60;4.20;;;19.50;51.20;;;;;;5069601;28;20047;-71
2022/09/22 12:17:58;;;;;;;7.80;4.70;;;19.50;50.70;;;;;;5066766;28;20033;-71
2022/09/22 12:21:15;;;;;;;8.63;4.60;;;19.50;50.20;;;;;;5065716;28;20032;-71
2022/09/22 12:23:48;;;;;;;7.30;4.50;;;19.40;49.40;;;;;;5023499;28;20057;-71
2022/09/22 12:26:41;;;;;;;7.23;4.10;;;19.50;50.40;;;;;;5032464;28;20053;-71
2022/09/22 12:29:13;;;;;;;9.23;5.10;;;19.60;50.80;;;;;;5064620;28;20383;-71
2022/09/22 12:31:46;;;;;;;8.10;3.90;;;19.60;49.50;;;;;;5061601;28;20489;-71
2022/09/22 12:34:17;;;;;;;7.30;4.30;;;19.70;50.10;;;;;;5063260;28;20067;-71
2022/09/22 12:36:43;;;;;;;6.83;4.17;;;19.60;48.40;;;;;;5066573;28;20076;-70
2022/09/22 12:39:24;;;;;;;7.73;4.33;;;19.70;49.00;;;;;;5044068;28;20049;-70
2022/09/22 12:42:04;;;;;;;6.77;3.00;;;19.70;49.60;;;;;;5049706;28;20039;-71
2022/09/22 12:44:42;;;;;;;6.30;3.47;;;19.80;49.60;;;;;;5066885;28;20036;-71
2022/09/22 12:47:20;;;;;;;7.37;3.37;;;19.70;49.80;;;;;;5067263;28;20043;-71
2022/09/22 12:50:00;;;;;;;5.53;2.90;;;19.70;50.10;;;;;;5065757;28;20045;-71
2022/09/22 12:52:41;;;;;;;5.50;3.20;;;19.70;49.40;;;;;;5056041;28;20111;-71
2022/09/22 12:55:27;;;;;;;9.13;3.93;;;19.60;49.50;;;;;;5039005;28;20048;-71
2022/09/22 12:58:00;;;;;;;5.67;2.73;;;19.60;50.20;;;;;;5049593;28;20091;-71
2022/09/22 13:00:38;;;;;;;6.23;2.63;;;19.60;50.10;;;;;;5071547;28;20479;-71
2022/09/22 13:03:26;;;;;;;5.33;2.60;;;19.50;50.30;;;;;;5044697;28;20048;-71
2022/09/22 13:06:02;;;;;;;5.27;2.40;;;19.50;50.00;;;;;;5058563;28;20039;-71
2022/09/22 13:08:31;;;;;;;4.80;2.20;;;19.50;49.50;;;;;;5064470;28;20543;-71
2022/09/22 13:11:07;;;;;;;4.63;2.40;;;19.50;49.30;;;;;;5040063;28;20576;-71
2022/09/22 13:13:41;;;;;;;5.77;2.73;;;19.40;48.70;;;;;;5048450;28;20040;-71
2022/09/22 13:16:13;;;;;;;4.87;2.70;;;19.50;49.30;;;;;;5049732;28;20037;-71
2022/09/22 13:18:53;;;;;;;6.60;2.27;;;19.60;49.50;;;;;;5067762;28;20040;-72
2022/09/22 13:21:28;;;;;;;5.93;2.10;;;19.70;49.80;;;;;;5061491;28;20067;-71
2022/09/22 13:23:54;;;;;;;4.28;2.30;;;19.70;50.20;;;;;;5060715;28;20067;-71
2022/09/22 13:26:21;;;;;;;4.87;2.10;;;19.80;48.90;;;;;;5049866;28;20409;-70
2022/09/22 13:29:18;;;;;;;6.37;2.47;;;19.80;49.40;;;;;;5078264;28;20086;-71
2022/09/22 13:31:47;;;;;;;4.77;1.93;;;19.90;48.00;;;;;;5033525;28;20045;-71
2022/09/22 13:34:28;;;;;;;3.63;1.90;;;19.90;48.30;;;;;;5065715;28;20135;-71
2022/09/22 13:36:59;;;;;;;4.47;1.90;;;19.80;48.60;;;;;;5048155;28;20047;-71